Time;durP1;ratioP1;P1;durP2;ratioP2;P2;SDS_P1;SDS_P2;PMS_P1;PMS_P2;Temp;Humidity;BMP_temperature;BMP_pressure;BME280_temperature;BME280_humidity;BME280_pressure;Samples;Min_cycle;Max_cycle;Signal;HPM_P1;HPM_P2
2024/01/02 00:00:14;;;;;;;2.70;1.70;;;8.00;98.00;;;;;;5074027;28;20480;-68
2024/01/02 00:02:43;;;;;;;3.80;1.77;;;8.10;98.00;;;;;;5073741;28;20456;-68
2024/01/02 00:05:12;;;;;;;4.10;1.97;;;8.20;98.00;;;;;;5039341;28;20527;-68
2024/01/02 00:07:39;;;;;;;2.20;1.60;;;8.10;98.00;;;;;;5073636;28;20453;-68
2024/01/02 00:10:09;;;;;;;2.30;1.50;;;8.00;98.00;;;;;;5073514;28;20580;-68
2024/01/02 00:12:38;;;;;;;4.57;1.87;;;8.00;98.00;;;;;;5073887;28;20445;-68
2024/01/02 00:15:07;;;;;;;2.10;1.50;;;8.00;98.00;;;;;;5073475;28;20447;-68
2024/01/02 00:17:34;;;;;;;3.30;1.47;;;7.90;98.00;;;;;;5073365;28;20532;-69
2024/01/02 00:20:01;;;;;;;2.23;1.67;;;7.80;98.00;;;;;;5073596;28;20462;-67
2024/01/02 00:22:29;;;;;;;4.90;1.60;;;;;;;;;;5073402;28;20455;-69
2024/01/02 00:24:56;;;;;;;2.43;1.47;;;7.70;98.00;;;;;;5073414;28;20932;-68
2024/01/02 00:27:24;;;;;;;2.27;1.50;;;7.60;98.00;;;;;;5073166;28;20928;-68
2024/01/02 00:29:51;;;;;;;5.90;1.93;;;7.70;98.00;;;;;;5073136;28;20477;-68
2024/01/02 00:32:18;;;;;;;4.67;1.60;;;7.70;98.00;;;;;;5072691;28;20449;-68
2024/01/02 00:34:45;;;;;;;3.70;1.67;;;7.70;98.00;;;;;;5072587;28;20499;-69
2024/01/02 00:37:12;;;;;;;2.07;1.63;;;7.70;98.00;;;;;;5072987;28;20472;-68
2024/01/02 00:39:40;;;;;;;6.00;1.80;;;7.70;98.00;;;;;;5073079;28;20455;-67
2024/01/02 00:42:07;;;;;;;2.43;1.63;;;7.80;98.00;;;;;;5073023;28;20456;-68
2024/01/02 00:44:35;;;;;;;2.80;1.80;;;7.80;98.00;;;;;;5072648;28;20463;-68
2024/01/02 00:47:02;;;;;;;4.50;1.87;;;7.80;98.00;;;;;;5072873;28;20469;-68
2024/01/02 00:49:29;;;;;;;3.17;1.53;;;7.70;98.00;;;;;;5072882;28;20445;-68
2024/01/02 00:51:56;;;;;;;2.67;1.50;;;7.60;98.00;;;;;;5072609;28;20464;-68
2024/01/02 00:54:23;;;;;;;3.40;1.50;;;7.60;98.00;;;;;;5072823;28;20455;-67
2024/01/02 00:56:51;;;;;;;5.03;1.80;;;7.60;98.00;;;;;;5072267;28;20452;-68
2024/01/02 00:59:18;;;;;;;3.00;1.53;;;7.50;98.00;;;;;;5072737;28;20452;-68
2024/01/02 01:01:45;;;;;;;4.10;1.73;;;7.70;98.00;;;;;;5072685;28;20464;-67
2024/01/02 01:04:13;;;;;;;3.70;1.57;;;7.60;98.00;;;;;;5072846;28;20460;-68
2024/01/02 01:06:40;;;;;;;3.77;1.60;;;7.60;98.00;;;;;;5071749;28;20526;-67
2024/01/02 01:09:07;;;;;;;3.90;1.70;;;7.60;98.00;;;;;;5072370;28;20463;-68
2024/01/02 01:11:35;;;;;;;5.10;2.10;;;7.60;98.00;;;;;;5071991;28;20579;-68
2024/01/02 01:14:03;;;;;;;2.50;1.67;;;7.70;98.00;;;;;;5054876;28;20456;-68
2024/01/02 01:16:31;;;;;;;2.27;1.53;;;7.70;98.00;;;;;;5072341;28;20819;-67
2024/01/02 01:18:58;;;;;;;2.60;1.60;;;7.60;98.00;;;;;;5072074;28;20541;-68
2024/01/02 01:21:25;;;;;;;3.47;1.93;;;7.50;98.00;;;;;;5071914;28;20452;-68
2024/01/02 01:23:55;;;;;;;4.90;1.63;;;7.40;98.00;;;;;;5072388;28;20868;-68
2024/01/02 01:26:22;;;;;;;7.67;1.70;;;7.30;98.00;;;;;;5072190;28;20483;-68
2024/01/02 01:28:50;;;;;;;2.50;1.60;;;7.30;98.00;;;;;;5071895;28;20456;-68
2024/01/02 01:31:19;;;;;;;2.73;1.70;;;7.30;98.00;;;;;;5071626;28;20488;-68
2024/01/02 01:33:46;;;;;;;3.40;1.73;;;7.40;98.00;;;;;;5071806;28;20460;-68
2024/01/02 01:36:13;;;;;;;5.60;1.73;;;7.30;98.00;;;;;;5071539;28;20444;-68
2024/01/02 01:38:40;;;;;;;4.77;1.83;;;7.30;98.00;;;;;;5071763;28;20449;-68
2024/01/02 01:41:08;;;;;;;2.17;1.60;;;7.20;98.00;;;;;;5071713;28;20521;-67
2024/01/02 01:43:35;;;;;;;2.17;1.50;;;7.20;98.00;;;;;;5071854;28;20465;-69
2024/01/02 01:46:02;;;;;;;9.23;1.53;;;7.20;98.00;;;;;;5070751;28;20459;-67
2024/01/02 01:48:32;;;;;;;3.33;1.57;;;7.20;98.00;;;;;;5071783;28;20661;-68
2024/01/02 01:50:59;;;;;;;3.80;1.60;;;7.20;98.00;;;;;;5071350;28;20493;-68
2024/01/02 01:53:26;;;;;;;1.60;1.60;;;7.20;98.00;;;;;;5071836;28;20452;-68
2024/01/02 01:55:54;;;;;;;2.70;1.60;;;7.10;98.00;;;;;;5071694;28;20449;-67
2024/01/02 01:58:21;;;;;;;4.40;1.73;;;7.20;98.00;;;;;;5071773;28;20462;-68
2024/01/02 02:00:48;;;;;;;1.70;1.37;;;7.20;98.00;;;;;;5071512;28;20465;-68
2024/01/02 02:03:17;;;;;;;2.73;1.87;;;7.30;98.00;;;;;;5071874;28;20468;-68
2024/01/02 02:05:46;;;;;;;2.23;1.50;;;7.20;98.00;;;;;;5071596;28;20841;-67
2024/01/02 02:08:13;;;;;;;1.87;1.60;;;7.20;98.00;;;;;;5071403;28;20977;-68
2024/01/02 02:10:40;;;;;;;2.57;1.40;;;7.40;98.00;;;;;;5071550;28;20484;-67
2024/01/02 02:13:07;;;;;;;1.80;1.40;;;7.60;98.00;;;;;;5071202;28;20456;-68
2024/01/02 02:15:38;;;;;;;2.83;1.70;;;7.50;98.00;;;;;;5070825;28;20448;-68
2024/01/02 02:18:06;;;;;;;3.13;1.80;;;7.50;98.00;;;;;;5070871;28;20456;-67
2024/01/02 02:20:33;;;;;;;2.27;1.43;;;7.60;98.00;;;;;;5070860;28;20502;-67
2024/01/02 02:23:02;;;;;;;3.67;1.70;;;7.60;98.00;;;;;;5071531;28;20938;-68
2024/01/02 02:25:29;;;;;;;1.97;1.50;;;7.60;98.00;;;;;;5071353;28;20944;-68
2024/01/02 02:27:56;;;;;;;2.37;1.60;;;7.50;98.00;;;;;;5071371;28;20460;-68
2024/01/02 02:30:23;;;;;;;1.80;1.40;;;7.40;98.00;;;;;;5071043;28;20477;-68
2024/01/02 02:32:50;;;;;;;3.90;1.40;;;7.60;98.00;;;;;;5071540;28;20790;-67
2024/01/02 02:35:17;;;;;;;3.30;1.70;;;7.60;98.00;;;;;;5071349;28;20445;-68
2024/01/02 02:37:44;;;;;;;1.57;1.33;;;7.60;98.00;;;;;;5071312;28;20926;-68
2024/01/02 02:40:14;;;;;;;3.30;1.50;;;7.60;98.00;;;;;;5071357;28;20455;-68
2024/01/02 02:42:41;;;;;;;2.90;1.70;;;7.70;98.00;;;;;;5071327;28;20516;-68
2024/01/02 02:45:09;;;;;;;3.50;1.53;;;7.80;98.00;;;;;;5071460;28;20462;-68
2024/01/02 02:47:37;;;;;;;1.83;1.40;;;7.80;98.00;;;;;;5071448;28;20458;-69
2024/01/02 02:50:05;;;;;;;2.10;1.57;;;7.90;98.00;;;;;;5074545;28;20482;-68
2024/01/02 02:52:33;;;;;;;2.10;1.37;;;7.90;98.00;;;;;;5075063;28;20457;-69
2024/01/02 02:55:00;;;;;;;2.60;1.50;;;8.00;98.00;;;;;;5074368;28;20485;-67
2024/01/02 02:57:28;;;;;;;2.03;1.43;;;8.00;98.00;;;;;;5075061;28;20451;-68
2024/01/02 02:59:56;;;;;;;3.87;1.50;;;8.10;98.00;;;;;;5074926;28;20501;-68
2024/01/02 03:02:23;;;;;;;2.03;1.40;;;8.10;98.00;;;;;;5074971;28;20486;-68
2024/01/02 03:04:51;;;;;;;1.53;1.30;;;8.00;98.00;;;;;;5075013;28;20449;-68
2024/01/02 03:07:19;;;;;;;1.50;1.40;;;8.10;98.00;;;;;;5074630;28;20466;-67
2024/01/02 03:09:46;;;;;;;5.40;1.67;;;8.10;98.00;;;;;;5074574;28;20469;-68
2024/01/02 03:12:13;;;;;;;2.57;1.50;;;8.10;98.00;;;;;;5074761;28;20495;-67
2024/01/02 03:14:42;;;;;;;1.80;1.40;;;8.10;98.00;;;;;;5074401;28;20449;-68
2024/01/02 03:17:09;;;;;;;2.30;1.70;;;8.10;98.00;;;;;;5056584;28;20521;-68
2024/01/02 03:19:37;;;;;;;1.67;1.40;;;8.10;98.00;;;;;;5074497;28;20460;-68
2024/01/02 03:22:04;;;;;;;1.70;1.40;;;8.10;98.00;;;;;;5074452;28;21030;-68
2024/01/02 03:24:32;;;;;;;2.27;1.70;;;8.10;98.00;;;;;;5074148;28;20455;-68
2024/01/02 03:26:59;;;;;;;2.27;1.50;;;8.10;98.00;;;;;;5074203;28;20952;-68
2024/01/02 03:29:30;;;;;;;2.40;1.50;;;8.10;98.00;;;;;;5074436;28;20446;-67
2024/01/02 03:31:58;;;;;;;2.07;1.50;;;8.10;98.00;;;;;;5073992;28;20481;-67
2024/01/02 03:34:25;;;;;;;1.63;1.30;;;8.10;98.00;;;;;;5073725;28;20453;-68
2024/01/02 03:36:52;;;;;;;1.53;1.40;;;8.10;98.00;;;;;;5072744;28;20452;-68
2024/01/02 03:39:21;;;;;;;2.67;1.67;;;8.10;98.00;;;;;;5072906;28;20441;-68
2024/01/02 03:41:48;;;;;;;1.70;1.40;;;8.10;98.00;;;;;;5073962;28;20827;-68
2024/01/02 03:44:15;;;;;;;1.83;1.50;;;8.10;98.00;;;;;;5074170;28;20445;-67
2024/01/02 03:46:42;;;;;;;1.77;1.50;;;8.10;98.00;;;;;;5056262;28;20446;-67
2024/01/02 03:49:11;;;;;;;2.27;1.60;;;8.20;98.00;;;;;;5073525;28;20449;-68
2024/01/02 03:51:38;;;;;;;2.43;1.67;;;8.20;98.00;;;;;;5073834;28;20498;-68
2024/01/02 03:54:05;;;;;;;1.80;1.40;;;8.20;98.00;;;;;;5073953;28;20852;-67
2024/01/02 03:56:32;;;;;;;1.77;1.60;;;8.30;98.00;;;;;;5073802;28;20444;-68
2024/01/02 03:58:59;;;;;;;3.30;1.70;;;8.10;98.00;;;;;;5055733;28;20452;-67
2024/01/02 04:01:26;;;;;;;3.23;1.43;;;8.10;98.00;;;;;;5073779;28;20452;-67
2024/01/02 04:03:53;;;;;;;2.10;1.50;;;8.10;98.00;;;;;;5056017;28;20449;-67
2024/01/02 04:06:22;;;;;;;1.43;1.40;;;8.00;98.00;;;;;;5073715;28;20801;-67
2024/01/02 04:08:49;;;;;;;2.40;1.70;;;8.00;98.00;;;;;;5073599;28;20452;-68
2024/01/02 04:11:17;;;;;;;2.77;1.37;;;8.00;98.00;;;;;;5073559;28;20482;-67
2024/01/02 04:13:44;;;;;;;2.43;1.50;;;8.00;98.00;;;;;;5073600;28;20451;-68
2024/01/02 04:16:13;;;;;;;2.00;1.50;;;8.00;98.00;;;;;;5073120;28;20455;-67
2024/01/02 04:18:41;;;;;;;2.27;1.30;;;8.00;98.00;;;;;;5073498;28;20460;-69
2024/01/02 04:21:08;;;;;;;1.90;1.40;;;8.10;98.00;;;;;;5054938;28;20522;-68
2024/01/02 04:23:36;;;;;;;1.60;1.40;;;8.00;98.00;;;;;;5073638;28;20460;-68
2024/01/02 04:26:03;;;;;;;1.80;1.40;;;8.00;98.00;;;;;;5073336;28;20447;-68
2024/01/02 04:28:30;;;;;;;1.40;1.33;;;8.00;98.00;;;;;;5073590;28;20464;-67
2024/01/02 04:30:57;;;;;;;1.40;1.27;;;8.10;98.00;;;;;;5073108;28;20480;-67
2024/01/02 04:33:25;;;;;;;1.43;1.30;;;8.10;98.00;;;;;;5073660;28;20958;-68
2024/01/02 04:35:53;;;;;;;1.40;1.40;;;8.10;98.00;;;;;;5071397;28;20447;-68
2024/01/02 04:38:21;;;;;;;1.60;1.37;;;8.10;98.00;;;;;;5073440;28;20457;-67
2024/01/02 04:40:49;;;;;;;2.30;1.43;;;8.10;98.00;;;;;;5073055;28;20467;-69
2024/01/02 04:43:20;;;;;;;1.30;1.20;;;8.10;98.00;;;;;;5073372;28;20451;-67
2024/01/02 04:45:47;;;;;;;2.83;1.87;;;8.10;98.00;;;;;;5055676;28;20458;-68
2024/01/02 04:48:14;;;;;;;2.30;1.40;;;8.10;98.00;;;;;;5073055;28;20455;-69
2024/01/02 04:50:41;;;;;;;1.50;1.23;;;8.10;98.00;;;;;;5072696;28;20456;-67
2024/01/02 04:53:08;;;;;;;1.60;1.30;;;8.00;98.00;;;;;;5072619;28;20456;-69
2024/01/02 04:55:36;;;;;;;2.10;1.60;;;7.90;98.00;;;;;;5072291;28;20494;-68
2024/01/02 04:58:04;;;;;;;1.60;1.30;;;7.90;98.00;;;;;;5072205;28;20491;-68
2024/01/02 05:00:32;;;;;;;1.60;1.40;;;8.00;98.00;;;;;;5072463;28;20972;-68
2024/01/02 05:02:59;;;;;;;1.60;1.30;;;7.90;98.00;;;;;;5072318;28;20452;-68
2024/01/02 05:05:26;;;;;;;3.77;1.30;;;7.80;98.00;;;;;;5072451;28;20464;-67
2024/01/02 05:07:54;;;;;;;1.70;1.40;;;7.80;98.00;;;;;;5080026;28;20454;-68
2024/01/02 05:10:22;;;;;;;2.03;1.37;;;7.90;98.00;;;;;;5090792;28;21236;-68
2024/01/02 05:12:50;;;;;;;1.70;1.30;;;7.90;98.00;;;;;;5091511;28;20485;-67
2024/01/02 05:15:19;;;;;;;1.70;1.20;;;7.90;98.00;;;;;;5092851;28;20476;-67
2024/01/02 05:17:46;;;;;;;1.93;1.30;;;7.80;98.00;;;;;;5092337;28;20505;-68
2024/01/02 05:20:14;;;;;;;1.90;1.33;;;7.80;98.00;;;;;;5092625;28;20815;-67
2024/01/02 05:22:41;;;;;;;1.53;1.30;;;7.80;98.00;;;;;;5092423;28;20477;-67
2024/01/02 05:25:09;;;;;;;1.77;1.20;;;7.80;98.00;;;;;;5092669;28;21108;-67
2024/01/02 05:27:37;;;;;;;1.23;1.20;;;7.70;98.00;;;;;;5092394;28;20937;-67
2024/01/02 05:30:05;;;;;;;1.90;1.20;;;7.70;98.00;;;;;;5090336;28;20447;-68
2024/01/02 05:32:33;;;;;;;1.80;1.30;;;7.80;98.00;;;;;;5091400;28;20490;-68
2024/01/02 05:35:00;;;;;;;1.40;1.37;;;7.80;98.00;;;;;;5091787;28;20454;-67
2024/01/02 05:37:28;;;;;;;1.33;1.10;;;7.80;98.00;;;;;;5091857;28;20456;-67
2024/01/02 05:39:56;;;;;;;2.00;1.10;;;7.90;98.00;;;;;;5092209;28;20972;-68
2024/01/02 05:42:23;;;;;;;1.20;1.20;;;7.80;98.00;;;;;;5074485;28;20447;-67
2024/01/02 05:44:50;;;;;;;1.70;1.30;;;7.90;98.00;;;;;;5092094;28;20988;-67
2024/01/02 05:47:17;;;;;;;1.20;1.10;;;7.80;98.00;;;;;;5091896;28;20481;-68
2024/01/02 05:49:46;;;;;;;1.20;1.17;;;7.80;98.00;;;;;;5092087;28;20455;-68
2024/01/02 05:52:13;;;;;;;2.60;1.30;;;7.80;98.00;;;;;;5074028;28;20486;-68
2024/01/02 05:54:40;;;;;;;1.20;1.20;;;7.80;98.00;;;;;;5092049;28;20952;-68
2024/01/02 05:57:07;;;;;;;1.30;1.30;;;7.80;98.00;;;;;;5091959;28;20524;-67
2024/01/02 05:59:34;;;;;;;3.63;1.33;;;7.80;98.00;;;;;;5091929;28;20447;-68
2024/01/02 06:02:01;;;;;;;1.93;1.30;;;7.80;98.00;;;;;;5091796;28;20545;-68
2024/01/02 06:04:29;;;;;;;1.40;1.20;;;7.80;98.00;;;;;;5092079;28;20473;-68
2024/01/02 06:06:57;;;;;;;1.70;1.50;;;7.70;98.00;;;;;;5091894;28;20458;-67
2024/01/02 06:09:25;;;;;;;1.33;1.20;;;7.70;98.00;;;;;;5091997;28;20446;-67
2024/01/02 06:11:52;;;;;;;1.20;1.20;;;7.60;98.00;;;;;;5091501;28;20481;-67
2024/01/02 06:14:21;;;;;;;2.70;1.50;;;7.60;98.00;;;;;;5091879;28;20833;-68
2024/01/02 06:16:48;;;;;;;1.40;1.20;;;7.60;98.00;;;;;;5091865;28;20819;-68
2024/01/02 06:19:18;;;;;;;3.97;1.27;;;7.60;98.00;;;;;;5091892;28;20453;-68
2024/01/02 06:21:45;;;;;;;1.17;1.10;;;7.60;98.00;;;;;;5092136;28;20470;-68
2024/01/02 06:24:13;;;;;;;1.13;1.13;;;7.70;98.00;;;;;;5096077;28;20459;-68
2024/01/02 06:26:41;;;;;;;1.90;1.40;;;7.70;98.00;;;;;;5095985;28;20492;-67
2024/01/02 06:29:08;;;;;;;1.37;1.20;;;7.70;98.00;;;;;;5095964;28;20481;-67
2024/01/02 06:31:35;;;;;;;1.73;1.40;;;7.60;98.00;;;;;;5095946;28;20547;-67
2024/01/02 06:34:02;;;;;;;1.40;1.20;;;7.70;98.00;;;;;;5095969;28;20450;-67
2024/01/02 06:36:30;;;;;;;4.40;1.20;;;7.70;98.00;;;;;;5096070;28;20472;-68
2024/01/02 06:38:58;;;;;;;1.97;1.30;;;7.70;98.00;;;;;;5095806;28;20576;-67
2024/01/02 06:41:28;;;;;;;1.73;1.30;;;7.70;98.00;;;;;;5095512;28;20465;-67
2024/01/02 06:43:55;;;;;;;1.40;1.30;;;7.70;98.00;;;;;;5095591;28;20507;-68
2024/01/02 06:46:23;;;;;;;1.50;1.20;;;7.70;98.00;;;;;;5095634;28;20516;-67
2024/01/02 06:48:50;;;;;;;1.20;1.13;;;7.70;98.00;;;;;;5095362;28;20458;-67
2024/01/02 06:51:17;;;;;;;1.30;1.20;;;7.80;98.00;;;;;;5095128;28;20462;-67
2024/01/02 06:53:45;;;;;;;1.20;1.10;;;7.90;98.00;;;;;;5095487;28;20503;-68
2024/01/02 06:56:12;;;;;;;1.60;1.27;;;7.90;98.00;;;;;;5095307;28;20456;-66
2024/01/02 06:58:44;;;;;;;1.40;1.30;;;7.80;98.00;;;;;;5095304;28;20463;-68
2024/01/02 07:01:14;;;;;;;2.30;1.40;;;7.90;98.00;;;;;;5095354;28;20455;-68
2024/01/02 07:03:41;;;;;;;2.40;1.40;;;7.90;98.00;;;;;;5095061;28;20870;-67
2024/01/02 07:06:08;;;;;;;1.57;1.27;;;8.00;98.00;;;;;;5095104;28;20451;-67
2024/01/02 07:08:35;;;;;;;1.27;1.20;;;8.10;98.00;;;;;;5095169;28;20447;-67
2024/01/02 07:11:02;;;;;;;1.20;1.10;;;8.10;98.00;;;;;;5094857;28;20477;-67
2024/01/02 07:13:29;;;;;;;1.83;1.20;;;8.10;98.00;;;;;;5094713;28;21050;-67
2024/01/02 07:15:58;;;;;;;1.63;1.30;;;8.10;98.00;;;;;;5094677;28;20470;-67
2024/01/02 07:18:25;;;;;;;1.60;1.20;;;8.20;98.00;;;;;;5054319;28;20552;-67
2024/01/02 07:20:52;;;;;;;1.50;1.27;;;8.20;98.00;;;;;;5054564;28;20464;-67
2024/01/02 07:23:19;;;;;;;1.27;1.13;;;8.20;98.00;;;;;;5054638;28;20456;-67
2024/01/02 07:25:46;;;;;;;1.40;1.20;;;8.20;98.00;;;;;;5054468;28;20953;-68
2024/01/02 07:28:13;;;;;;;1.40;1.30;;;8.20;98.00;;;;;;5036446;28;20456;-67
2024/01/02 07:30:40;;;;;;;1.10;1.00;;;8.30;98.00;;;;;;5054169;28;20475;-68
2024/01/02 07:33:10;;;;;;;1.30;1.17;;;8.30;98.00;;;;;;5054083;28;20998;-67
2024/01/02 07:35:37;;;;;;;1.47;1.20;;;8.40;98.00;;;;;;5054016;28;20448;-67
2024/01/02 07:38:04;;;;;;;1.53;1.10;;;8.40;98.00;;;;;;5054268;28;20464;-67
2024/01/02 07:40:32;;;;;;;2.23;1.30;;;8.50;98.00;;;;;;5054273;28;20448;-67
2024/01/02 07:43:00;;;;;;;1.30;1.13;;;8.50;98.00;;;;;;5053581;28;20488;-67
2024/01/02 07:45:28;;;;;;;1.20;1.17;;;8.50;98.00;;;;;;5053718;28;20453;-67
2024/01/02 07:47:58;;;;;;;1.70;1.20;;;8.50;98.00;;;;;;5053581;28;20453;-67
2024/01/02 07:50:26;;;;;;;1.10;1.10;;;8.60;98.00;;;;;;5054307;28;20935;-67
2024/01/02 07:52:53;;;;;;;1.30;1.00;;;8.70;98.00;;;;;;5053823;28;20834;-67
2024/01/02 07:55:20;;;;;;;1.30;1.20;;;8.80;98.00;;;;;;5054341;28;20449;-67
2024/01/02 07:57:47;;;;;;;1.20;1.00;;;8.80;98.00;;;;;;5053944;28;20464;-67
2024/01/02 08:00:16;;;;;;;1.20;1.10;;;8.80;98.00;;;;;;5054179;28;20494;-67
2024/01/02 08:02:43;;;;;;;1.27;1.03;;;8.80;98.00;;;;;;5036014;28;20453;-67
2024/01/02 08:05:11;;;;;;;1.30;1.10;;;8.90;98.00;;;;;;5054237;28;20467;-67
2024/01/02 08:07:39;;;;;;;1.30;1.10;;;8.90;98.00;;;;;;5036664;28;20484;-67
2024/01/02 08:10:08;;;;;;;1.30;1.20;;;8.90;98.00;;;;;;5036305;28;20457;-67
2024/01/02 08:12:35;;;;;;;1.10;1.00;;;8.90;98.00;;;;;;5053692;28;20485;-67
2024/01/02 08:15:02;;;;;;;1.20;1.00;;;8.90;98.00;;;;;;5053538;28;20866;-67
2024/01/02 08:17:29;;;;;;;1.20;1.10;;;9.00;98.00;;;;;;5053490;28;20481;-67
2024/01/02 08:19:57;;;;;;;1.20;1.03;;;8.90;98.00;;;;;;5053617;28;20469;-67
2024/01/02 08:22:24;;;;;;;1.13;1.07;;;8.90;98.00;;;;;;5053541;28;20456;-67
2024/01/02 08:24:53;;;;;;;1.30;1.10;;;8.90;98.00;;;;;;5053742;28;20461;-67
2024/01/02 08:29:48;;;;;;;1.20;1.03;;;8.90;98.00;;;;;;5030486;28;20976;-68
2024/01/02 08:32:15;;;;;;;1.40;1.10;;;9.00;98.00;;;;;;5032283;28;20490;-68
2024/01/02 08:34:42;;;;;;;1.60;1.10;;;9.00;98.00;;;;;;5033838;28;20939;-68
2024/01/02 08:37:09;;;;;;;2.70;1.20;;;9.00;98.00;;;;;;5016027;28;20461;-68
2024/01/02 08:39:36;;;;;;;1.10;1.00;;;9.10;98.00;;;;;;5032115;28;20470;-68
2024/01/02 08:42:07;;;;;;;1.20;1.10;;;9.10;98.00;;;;;;5032755;28;20473;-67
2024/01/02 08:44:34;;;;;;;1.33;1.00;;;9.00;98.00;;;;;;5033177;28;20876;-69
2024/01/02 08:47:02;;;;;;;1.20;1.10;;;9.10;98.00;;;;;;5031972;28;21264;-64
2024/01/02 08:49:29;;;;;;;1.60;1.10;;;9.10;98.00;;;;;;5032101;28;20533;-62
2024/01/02 08:51:56;;;;;;;1.60;1.27;;;9.30;98.00;;;;;;5032757;28;20957;-62
2024/01/02 08:54:23;;;;;;;1.20;1.10;;;9.40;98.00;;;;;;5032984;28;20451;-66
2024/01/02 08:56:51;;;;;;;1.20;1.10;;;9.40;98.00;;;;;;5032272;28;20484;-67
2024/01/02 08:59:19;;;;;;;1.47;1.10;;;9.40;98.00;;;;;;5033034;28;21004;-66
2024/01/02 09:01:51;;;;;;;1.40;1.20;;;9.40;98.00;;;;;;5032970;28;20931;-66
2024/01/02 09:04:19;;;;;;;1.20;1.20;;;9.30;98.00;;;;;;5033229;28;20873;-66
2024/01/02 09:06:47;;;;;;;1.50;1.20;;;9.30;98.00;;;;;;5033314;28;20458;-65
2024/01/02 09:09:15;;;;;;;1.20;1.10;;;9.30;98.00;;;;;;5033278;28;20451;-66
2024/01/02 09:11:42;;;;;;;1.30;1.10;;;9.20;98.00;;;;;;5032907;28;20455;-66
2024/01/02 09:14:09;;;;;;;1.20;1.10;;;9.20;98.00;;;;;;5015488;28;20497;-66
2024/01/02 09:16:40;;;;;;;1.57;1.20;;;9.20;98.00;;;;;;5014957;28;20955;-64
2024/01/02 09:19:07;;;;;;;1.30;1.10;;;9.20;98.00;;;;;;5032197;28;20465;-65
2024/01/02 09:21:35;;;;;;;1.17;1.10;;;9.20;98.00;;;;;;5044901;28;20446;-65
2024/01/02 09:24:02;;;;;;;1.33;1.10;;;9.30;98.00;;;;;;5052503;28;20469;-65
2024/01/02 09:26:32;;;;;;;1.20;1.03;;;9.40;98.00;;;;;;5034800;28;20462;-66
2024/01/02 09:28:59;;;;;;;1.40;1.07;;;9.40;98.00;;;;;;5034495;28;20516;-62
2024/01/02 09:31:29;;;;;;;1.90;1.10;;;9.50;98.00;;;;;;5035991;28;20460;-62
2024/01/02 09:33:57;;;;;;;1.10;1.00;;;9.90;98.00;;;;;;5015003;28;20494;-64
2024/01/02 09:36:29;;;;;;;1.20;1.10;;;9.90;98.00;;;;;;5032282;28;20482;-63
2024/01/02 09:38:56;;;;;;;1.50;1.13;;;9.80;98.00;;;;;;5031571;28;20511;-62
2024/01/02 09:41:40;;;;;;;1.40;1.20;;;9.60;98.00;;;;;;5032331;28;20489;-63
2024/01/02 09:44:28;;;;;;;1.10;1.10;;;9.60;98.00;;;;;;5023960;28;20877;-63
2024/01/02 09:47:07;;;;;;;1.30;1.00;;;9.50;98.00;;;;;;5011996;28;20511;-63
2024/01/02 09:49:48;;;;;;;1.20;1.13;;;9.60;98.00;;;;;;5012560;28;20956;-62
2024/01/02 09:52:45;;;;;;;1.57;1.33;;;9.50;98.00;;;;;;5012469;28;20452;-63
2024/01/02 09:55:20;;;;;;;1.90;1.10;;;9.60;98.00;;;;;;5012217;28;20901;-63
2024/01/02 09:58:08;;;;;;;1.30;1.10;;;9.60;98.00;;;;;;5011299;28;20458;-63
2024/01/02 10:00:47;;;;;;;1.30;1.13;;;9.60;98.00;;;;;;5012459;28;20457;-65
2024/01/02 10:03:48;;;;;;;1.40;1.00;;;9.70;98.00;;;;;;5012305;28;20802;-65
2024/01/02 10:06:35;;;;;;;1.10;1.00;;;9.70;98.00;;;;;;5012190;28;20452;-65
2024/01/02 10:09:23;;;;;;;1.70;1.20;;;9.70;98.00;;;;;;5011875;28;20455;-65
2024/01/02 10:12:03;;;;;;;1.20;1.10;;;9.70;98.00;;;;;;5012244;28;20471;-65
2024/01/02 10:14:41;;;;;;;1.40;1.10;;;9.70;98.00;;;;;;5012236;28;20497;-65
2024/01/02 10:17:21;;;;;;;1.23;1.10;;;9.60;98.00;;;;;;5012209;28;20462;-65
2024/01/02 10:19:59;;;;;;;1.47;1.10;;;9.60;98.00;;;;;;5012218;28;20458;-65
2024/01/02 10:22:37;;;;;;;1.20;1.10;;;9.60;98.00;;;;;;5011726;28;20462;-65
2024/01/02 10:25:11;;;;;;;1.20;1.00;;;9.60;98.00;;;;;;5011824;28;20458;-65
2024/01/02 10:27:50;;;;;;;2.07;1.10;;;9.60;98.00;;;;;;5011470;28;20551;-65
2024/01/02 10:30:21;;;;;;;1.40;1.20;;;9.80;98.00;;;;;;5011788;28;20830;-65
2024/01/02 10:33:02;;;;;;;1.23;1.00;;;9.80;98.00;;;;;;4978074;28;20529;-65
2024/01/02 10:35:37;;;;;;;1.20;1.10;;;9.80;98.00;;;;;;5019560;28;20859;-65
2024/01/02 10:38:11;;;;;;;2.07;1.20;;;9.80;98.00;;;;;;5051401;28;20451;-65
2024/01/02 10:40:43;;;;;;;1.70;1.20;;;9.90;98.00;;;;;;5034071;28;20451;-65
2024/01/02 10:43:18;;;;;;;1.70;1.20;;;9.90;98.00;;;;;;5019604;28;20559;-65
2024/01/02 10:45:57;;;;;;;1.20;1.10;;;9.90;98.00;;;;;;5253209;22;20486;-68
2024/01/02 10:48:45;;;;;;;1.77;1.20;;;10.00;98.00;;;;;;5038197;28;20464;-67
2024/01/02 10:51:23;;;;;;;1.10;1.00;;;10.10;98.00;;;;;;5043736;28;20455;-67
2024/01/02 10:53:58;;;;;;;1.30;1.10;;;10.10;98.00;;;;;;5039116;28;20580;-68
2024/01/02 10:56:37;;;;;;;3.33;1.10;;;10.10;98.00;;;;;;5048752;28;20465;-67
2024/01/02 10:59:15;;;;;;;1.20;1.03;;;10.20;98.00;;;;;;5049363;28;20458;-68
2024/01/02 11:01:47;;;;;;;1.20;1.10;;;10.20;98.00;;;;;;5049446;28;20462;-66
2024/01/02 11:04:21;;;;;;;1.73;1.20;;;10.20;98.00;;;;;;5050776;28;20461;-67
2024/01/02 11:06:56;;;;;;;1.20;1.10;;;10.30;98.00;;;;;;5050704;28;20827;-67
2024/01/02 11:09:31;;;;;;;1.57;1.10;;;10.20;98.00;;;;;;5052172;28;20450;-67
2024/01/02 11:11:59;;;;;;;1.10;1.10;;;10.30;98.00;;;;;;5054402;28;20574;-67
2024/01/02 11:14:29;;;;;;;1.10;1.03;;;10.30;98.00;;;;;;5054033;28;20567;-67
2024/01/02 11:16:58;;;;;;;1.30;1.10;;;10.30;98.00;;;;;;5054630;28;20496;-67
2024/01/02 11:19:32;;;;;;;1.20;1.00;;;10.40;98.00;;;;;;5055267;28;20455;-67
2024/01/02 11:22:07;;;;;;;1.20;1.10;;;10.40;98.00;;;;;;5054648;28;20456;-67
2024/01/02 11:24:45;;;;;;;1.47;1.10;;;10.40;98.00;;;;;;5054429;28;20456;-67
2024/01/02 11:27:16;;;;;;;1.30;1.10;;;10.50;98.00;;;;;;5053122;28;20546;-66
2024/01/02 11:29:45;;;;;;;1.53;1.20;;;10.60;98.00;;;;;;5054555;28;20454;-67
2024/01/02 11:32:17;;;;;;;1.20;1.10;;;10.60;98.00;;;;;;5054640;28;20450;-67
2024/01/02 11:34:59;;;;;;;1.17;1.10;;;10.60;98.00;;;;;;5054023;28;20485;-67
2024/01/02 11:37:36;;;;;;;1.60;1.20;;;10.70;98.00;;;;;;5053922;28;20453;-66
2024/01/02 11:40:21;;;;;;;1.30;1.10;;;10.70;98.00;;;;;;5053928;28;20539;-67
2024/01/02 11:42:56;;;;;;;1.57;1.23;;;10.70;98.00;;;;;;5052389;28;20450;-67
2024/01/02 11:45:26;;;;;;;1.83;1.20;;;10.80;98.00;;;;;;5052602;28;20461;-67
2024/01/02 11:48:05;;;;;;;1.13;1.00;;;10.70;98.00;;;;;;5053869;28;20905;-67
2024/01/02 11:50:42;;;;;;;1.20;1.10;;;10.80;98.00;;;;;;5052883;28;20456;-66
2024/01/02 11:53:18;;;;;;;1.17;1.10;;;10.70;98.00;;;;;;5053717;28;20494;-67
2024/01/02 11:55:55;;;;;;;1.20;1.10;;;10.80;98.00;;;;;;5053787;28;20445;-68
2024/01/02 11:58:27;;;;;;;1.50;1.10;;;10.90;98.00;;;;;;5053604;28;20461;-66
2024/01/02 12:01:04;;;;;;;1.73;1.13;;;10.90;98.00;;;;;;5053482;28;21012;-66
2024/01/02 12:03:41;;;;;;;1.43;1.10;;;10.90;98.00;;;;;;5053603;28;20806;-66
2024/01/02 12:06:17;;;;;;;1.10;1.00;;;10.90;98.00;;;;;;5053670;28;20472;-66
2024/01/02 12:08:49;;;;;;;1.40;1.10;;;10.90;98.00;;;;;;5053208;28;20491;-66
2024/01/02 12:11:20;;;;;;;1.17;1.00;;;10.90;98.00;;;;;;5053399;28;20869;-67
2024/01/02 12:14:18;;;;;;;1.20;1.00;;;10.90;98.00;;;;;;5053055;28;20477;-67
2024/01/02 12:16:48;;;;;;;1.43;1.10;;;10.90;98.00;;;;;;5052952;28;20469;-67
2024/01/02 12:19:21;;;;;;;2.90;1.13;;;10.80;98.00;;;;;;5053248;28;20453;-67
2024/01/02 12:21:49;;;;;;;1.13;1.07;;;10.80;98.00;;;;;;5052510;28;20459;-66
2024/01/02 12:24:16;;;;;;;1.10;1.10;;;10.80;98.00;;;;;;5052957;28;20453;-66
2024/01/02 12:26:46;;;;;;;1.20;1.00;;;10.80;98.00;;;;;;5052994;28;20951;-67
2024/01/02 12:29:23;;;;;;;1.20;1.00;;;10.90;98.00;;;;;;5053559;28;20457;-66
2024/01/02 12:31:57;;;;;;;1.17;1.00;;;10.90;98.00;;;;;;5053497;28;20973;-67
2024/01/02 12:34:30;;;;;;;1.20;1.00;;;10.90;98.00;;;;;;5251076;22;20592;-67
2024/01/02 12:37:17;;;;;;;1.50;1.10;;;10.90;98.00;;;;;;5052562;28;20458;-66
2024/01/02 12:39:45;;;;;;;1.40;1.10;;;10.90;98.00;;;;;;5052646;28;20452;-67
2024/01/02 12:42:18;;;;;;;1.30;1.10;;;10.90;98.00;;;;;;5052497;28;20981;-67
2024/01/02 12:44:52;;;;;;;1.20;1.10;;;10.90;98.00;;;;;;5052915;28;20485;-67
2024/01/02 12:47:24;;;;;;;1.20;1.10;;;10.90;98.00;;;;;;5053200;28;20950;-66
2024/01/02 12:50:00;;;;;;;1.73;1.10;;;10.90;98.00;;;;;;5053148;28;20536;-67
2024/01/02 12:52:32;;;;;;;1.20;1.10;;;10.90;98.00;;;;;;5053055;28;20450;-66
2024/01/02 12:55:00;;;;;;;1.20;1.10;;;11.00;98.00;;;;;;5052987;28;20499;-67
2024/01/02 12:57:33;;;;;;;4.53;1.10;;;11.00;98.00;;;;;;5052964;28;20486;-66
2024/01/02 13:00:00;;;;;;;1.30;1.10;;;10.90;98.00;;;;;;5052897;28;20489;-66
2024/01/02 13:02:30;;;;;;;1.30;1.10;;;11.00;98.00;;;;;;5052947;28;20463;-66
2024/01/02 13:04:57;;;;;;;1.20;1.00;;;10.90;98.00;;;;;;5052516;28;20445;-65
2024/01/02 13:07:24;;;;;;;1.63;1.10;;;11.00;98.00;;;;;;5052948;28;20465;-66
2024/01/02 13:09:52;;;;;;;1.20;1.10;;;11.00;98.00;;;;;;5034376;28;20573;-66